Wormleysburg, Pennsylvania
Current Conditions -  °F | °C
As of 2:56 PM on Thursday 20 Nov 2014 (Local Time) from KCXY Reporting Station
Clear Clear  
Wind Chill: 36°   Ceiling: Unl
Heat Index: 43°   Visibility: 10mi
Dew Point: 17°   Wind: 15mph
Humidity: 35%   Direction: 280°W
Pressure: 29.9"   Gusts: NA
Location:  40.2478°N, 76.9006°W
Report Text: KCXY 201956Z 28013KT 10SM CLR 06/M08 A2990 RMK AO2 SLP131 T00611083
Loading
Personal Weather Stations






























Interactive Weather Map New forecast layout! Learn more

10-Day Weather Forecast

Advertisements
Track Severe Weather on mobile